Kezdőlap
METAR-TAF:

METAR-TAF

Repülőterek :

Malmői repülőtér

Malmö, Svédország

földrajzi szélesség: 55-33N, földrajzi hosszúság: 013-22E, magasság: 106 m

Jelenlegi meteorológiai megfigyelések

A jelentés 17 perccel ezelõtt készült, 03:50 UTC
Nyugati szél 4 kt
Hőmérséklet 13°C
Páratartalom 88%
Légköri nyomás 1017 hPa
Látótávolság 10 km, vagy több
felhőtlen 1500 m magasságban, és nincs gomolyfelhõ

METAR: ESMS 180350Z 27004KT CAVOK 13/11 Q1017

Idő: 06:07 (04:07 UTC)

Előrejelzés

A jelentés 5 órával és 0 perccel ezelõtt készült, 23:07 UTC
Az előrejelzés 18-én 00 óra UTC és 18-én 24 óra UTC között érvényes
Nyugat-délnyugati szél 10 kt
Látótávolság 10 km, vagy több
Szórványos felhőzet 2000 lábon

TAF: ESMS 172307Z 1800/1824 24010KT 9999 SCT020

Meteorológiai megfigyelések és előrejelzések több, mint 4000 repülőtéren (METAR és TAF jelentéseket).

A térképen piros és sárga pontok jelzik az elérhető meteorológiai állomásokat.

Mozgassa az egeret a pont fölött, hogy megjelenjen az állomás neve.

Azután kattintson az időjárási megfigyelések és előrejelzések megtekintéséhez.

A térkép megváltoztatása: kattintson a fekete keresztel jelölt zöld gombra ráközelítéshez, a vonallal jelölt zöld gombra távolításhoz, vagy a zöld nyilakra a szomszédos térképek eléréséhez.


METAR-TAF: